Terminal Aerodrome Forecast
Issued by NWS Sterling, VA

Current Version | Previous Version | Graphics & Text | Print | Product List | Glossary On
Versions: 1 2 3 4 5 6 7 8 9 10 11 12 13 14 15 16 17 18 19 20 21 22 23 24 25 26
000
FTUS41 KLWX 242042 AAA
TAFDCA
TAF AMD
KDCA 242042Z 2421/2518 18007KT P6SM VCTS SCT060CB BKN140
      TEMPO 2422/2423 34015G25KT 3SM TSRA OVC040CB
     FM250300 25005KT P6SM SCT060 BKN200
     FM250700 31007KT P6SM FEW150 SCT250=

USA.gov is the U.S. government's official web portal to all federal, state and local government web resources and services.